Logs | Lars Lahti, Haparanda, SWE - KP25ax
Paging Controls
Log ID Date UTC KHz ID Location S/P ITU Region GSQ LSB USB Sec. Fmt. Power KM Miles Deg
2350169 2022-10-13 1609 345 B Khanty-Mansiysk RUS eu MP41ma 401 400 20 2246 1396 82
2350168 2022-09-05 1853 598 FN Ivano-Frankivsk UKR eu KN28iv 1022 1019 10.11 1900 1180 178
2350167 2022-09-02 1900 511 WC Unknown XUA xx 1029 16
2350166 2022-09-01 1900 392 Yu Buturlinovka Air Base RUS eu LO00ht 1060 14.67 1930 1199 142
2350165 2022-08-26 1900 597 R Novosibirsk / Tolmachevo RSE as NO15ha 1022 1022 10.05 3284 2041 82
2350164 2022-08-13 2100 622 JP Karshi UZB as MM28vu 759 760 14.99 3997 2484 117
2309202 2022-04-12 1942 662 UW Kirovskoye RUS eu KN75of 2403 1493 158
2309201 2022-04-06 1715 660 K Voronezh / Baltimor RUS eu
2309199 2022-04-04 1756 830 K Krymsk RUS eu KN94ax 2483 1543 153
2309200 2022-04-04 1756 692 W UNID XUU xx
2309197 2022-04-01 1930 230 Q Taganrog RUS eu KN97kf 2260 1404 149
2309198 2022-04-01 1930 477 DE Baranovichi BLR eu KO33ad 1431 889 174
2309196 2022-03-24 1647 827 L Balashov RUS eu LO11pm 1936 1203 136
2309195 2022-03-23 1817 498 ZE UNID XUE xx
2309194 2022-03-23 1625 740 U Syzran / Northeast RUS eu LO43gf 1952 1213 124
2309193 2022-03-19 1819 229 PC Unknown XUA xx
2309192 2022-03-16 1808 439 P Unknown XUA xx
2309191 2022-03-16 1634 829 N Volgograd / Marinovka RUS eu LN18vp 2241 1392 139
2309190 2022-03-15 1746 488 YN UNID XUA xx
2309189 2022-03-12 1831 318.5 KA Voronezh / Baltimor RUS eu KO91ot 1789 1112 144
2309188 2022-03-10 0258 1205 A Morozovsk RUS eu LN08vh 2219 1379 143
2309187 2022-03-09 1631 829 O Volgograd / Marinovka RUS eu LN18vp 2241 1392 139
2309186 2022-03-08 1800 250 RQ Rafiqui AFB PAK as MM60dr 5070 3150 116
2309185 2022-03-03 1652 518 DG Chita / Kadala RSE as OO62qa 4860 3019 62
2309184 2022-03-03 1504 1058 HR Harjyaginskij RUS eu LP87jf 1436 892 69
2309182 2022-03-03 0358 1130 M Mezen RUS eu LP25cu 911 566 81
2309183 2022-03-03 0358 835 D Varandej RUS eu LP98cu 1473 915 62
2309181 2022-03-02 0400 422 A Szolnok / Opera HNG eu KN07cc 2111 1312 188
2309180 2022-03-01 1754 331 QZ Unknown XUA xx
2309179 2022-03-01 1642 713 TC Kazan/Borisoglebskoye RUS eu
2309178 2022-02-28 1818 433 Y Xilinhot Saiwusu Airport CHN as ON73xw 5714 3550 67
2309175 2022-02-26 1716 480 TDF Unknown XUA xx
2309176 2022-02-26 1716 318.5 JW Voronezh / Baltimor RUS eu KO91no 1808 1124 144
2309177 2022-02-26 1716 514 IR Irkutsk RSE as OO22ff 4472 2779 69
2309174 2022-02-26 1628 620 K Novosibirsk/Tolmachevo RSE as NO15ha 3284 2041 82
2309173 2022-02-26 0510 300.5 LW Koln / Bonn DEU eu JO30pv 25 1926 1197 217
2309172 2022-02-25 1955 480 UH Undurkhaan MNG as ON57hh 5175 3215 68
2309171 2022-02-21 1640 760 D Kosubyevskoe RUS eu LN04vq 2598 1614 146
2309170 2022-02-14 2000 510 YD UNID XUA xx
2309169 2022-02-12 1710 832 ShW Olenya RUS eu KP68rd 473 294 55
2309168 2022-01-06 0500 393 ARA Amoco / Arbroath A Platform XOE iw JO07qi 1518 943 241
2309167 2022-01-05 1617 530 U Sovetskiy RSE as MP11th 1984 1233 86
2309166 2022-01-05 1529 737 GSh Arktichesky RUS eu LP98bt 1470 913 62
2309165 2022-01-02 1722 469 FK Kerki TKM as MM27nu 4070 2529 119
2309164 2021-12-31 1743 678 RD Rivne UKR eu KO30co 1714 1065 174
2309163 2021-12-23 1936 690 SR Seredne UKR eu KN18gm 1943 1207 183
2309162 2021-10-24 0500 292 MIA Melilla MEL af IM85mh 250 3838 2385 220
2309161 2021-10-09 0300 332 EAL Almagro ESP eu IM88cw 25 3485 2166 224
2309160 2021-10-07 1800 319 SB Xichang/Qingshan/Hexi CHN as OL17br 6676 4148 88
2309159 2021-10-07 1700 388 UZ Xichang, Qingshan CHN as OL17cx 6655 4135 88
2309158 2021-10-04 0300 334 OXY Alpha 103 LBY af KL09ja 4115 2557 184
2309157 2021-09-30 1800 310 CU Komsomolskoye RUS eu LO30mt 2128 1322 131
2309156 2021-09-30 0200 420 LMT Auch / Lamothe FRA eu JN03hr 2854 1773 221
2309155 2021-09-28 1758 750 C Kapustin Yar RUS eu LN28uq 2295 1426 136
2309154 2021-09-26 1800 510 FF Valek RSE as NP49ej 2614 1624 52
2309153 2021-09-24 1700 514 IF Astrakhan / Privolzhsky RUS eu LN36wj 2594 1612 135
2309152 2021-09-23 0015 297 NA Miroslawiec POL eu JO83aj 1467 911 201
2309151 2021-09-20 0015 220 AYa Buguruslan RUS eu LO63fp 2067 1284 117
2309150 2021-09-19 1830 458 BN Erenhot Airport CHN as ON63bk 5600 3479 70
2309148 2021-09-17 1730 250 M Gromovo RUS eu KP50br 657 408 149
2309149 2021-09-17 1730 462 KL UNID XUE xx
2309146 2021-09-14 1815 323 WG UNID XUE xx
2309147 2021-09-14 1815 272 AN UNID XUA xx
2309145 2021-09-06 0058 888 P Pardubice CZE eu JO70va 1836 1141 198
2309144 2021-09-05 2015 392 PG Buguruslan / Severnyj RUS eu LO63er 2056 1277 117
2178100 2021-09-01 0158 410 LMYX3 Vessel Normand Skipper XOE iw
2178101 2021-09-01 0158 749 QL Kramatorsk UKR eu KN88tq 2078 1291 151
2178102 2021-09-01 0158 1065 HE Kherson / Chernobayevka UKR eu KN66gq 2203 1369 162
2178099 2021-08-16 0058 405 HMI Sevan Hummingbird FPSO XOE iw JO07ox 1474 916 243
2178097 2021-08-12 1940 982 DN Divnomorskoye RUS eu KN94bm 2534 1574 153
2178098 2021-08-12 1940 930 II UNID - Zernograd miskeying? XUE xx
2178096 2021-08-11 1928 407 NH Olexandriya UKR eu KN68oq 1995 1239 160
2130397 2021-04-28 0000 345 TST UNID XUE xx
2130398 2021-04-28 0000 384 WXYZ UNID XUU xx
2130399 2021-04-28 0000 385 VNS Trondheim / Vaerrnes NOR eu JP53ll 679 422 251
2130400 2021-04-28 0000 350 TEST UNID XUU xx
2130395 2021-04-17 0000 312 TEST UNID - BOZ-312 ? XUU xx
2130396 2021-04-17 0000 332 RB UNID XUU xx
2178095 2021-04-17 0000 411 DP4 Bouri DP4/LCM Oil + Gas Libya XOF iw JM65it 3435 2134 198
2130393 2021-04-13 1934 358 CI Rostov-Severnyi RUS eu KN97ug 2275 1414 148
2130394 2021-04-13 1934 535 UE Gvardeyskoe UKR eu KN65xc 2397 1489 160
2130392 2021-04-06 1822 740 WM Armavir / Tsentralny RUS eu LN04nx 2551 1585 147
2178094 2021-03-30 1830 350 RM Colombo / Ratmalana CLN as MJ96wu 1000 7824 4861 119
2130391 2021-01-30 1613 860 RO Tolmachevo / Novosibirsk RSE as NO15ga 3280 2038 83
2130386 2021-01-29 1605 915 J Nizhnevartovsk RSE as MP80fw 2582 1604 77
2130387 2021-01-29 1605 620 P Pskov RUS eu KO47qs 954 593 160
2130388 2021-01-29 1605 843 W Orenburg / Tsentralniy RUS eu LO71rt 2351 1461 116
2130389 2021-01-29 1605 733 WK Akhtubinsk RUS eu LN38dh 2351 1461 135
2130390 2021-01-29 1605 678 Z Pechora RUS eu LP85nc 1508 937 78
2130384 2021-01-24 2041 231 R Malacky - Kuchyna SVK eu JN88nj 1996 1240 195
2130385 2021-01-24 2041 432 ZAR Zwara (= 6SH) LBY af JM62aw 3760 2336 198
2130382 2021-01-24 1830 450 IM Khovd MNG as ON73iu 5670 3523 68
2130383 2021-01-24 1830 211 W UNID XUE xx
2130378 2021-01-24 1656 399 KMN Burgas / Kamenar BUL eu KN32tp 2604 1618 173
2130379 2021-01-24 1656 207 RN UNID XUE xx
2130380 2021-01-24 1656 388 PG Panjgur PAK as ML26bw 5143 3196 127
2130381 2021-01-24 1656 350 N Nalchik RUS eu LN13tm 2768 1720 144
2130373 2021-01-17 1825 835 SA Sabetta RSE as MQ51xe 1970 1224 51
2130374 2021-01-17 1825 662 UJ Ust-Mana RUS eu NO65fw 3647 2266 74
2130375 2021-01-17 1825 733 A Abakan RSE as NO53qr 3778 2348 77
2130402 2021-01-17 1825 668 A Surgut RSE as MP61ri 2423 1505 78
2189013 2021-01-17 1825 654 M Astana/Akmola KAZ as MO51ra 3108 1931 98
2130372 2021-01-16 1520 804 V Severomorsk-1 RUS eu KP69qb 523 325 44
2059760 2021-01-15 1638 213 X Kirov RUS eu LO48qm 1020 1022 10.05 1535 954 110
2059759 2021-01-09 1802 255 SO Solo INS as OI52il 1021 8.62 10620 6599 96
2059757 2021-01-04 0609 302 UM Novaya Zemlya (Rogachevo) RUS eu LQ61fo 1023 1024 15.2 1286 799 48
2059758 2021-01-04 0609 391 EAV 'Evansville' Bettles AK ALS na BP46fv 1031 1028 8.24 5236 3253 357
2059756 2020-12-29 1854 390 GYu Nasosnaya AZE as LN40sm 1024 1023 10.14 3249 2019 137
2059755 2020-12-28 1816 295 ZAL Zabol IRN as MM01sc 1014 5.21 4620 2870 128
2059754 2020-12-23 1643 415 OVH UNID XUU xx 1057 27.94
2059753 2020-12-21 1825 465 FH Erebuni ARM as LN20eb 1003 16.68 3153 1959 145
2059752 2020-12-11 1647 406 LO Balashov RUS eu LO11pm 1043 1058 15.04 1936 1203 136
2059751 2020-12-10 1540 1210 PR Peredovaya RUS eu LN04rc 902 15.06 2652 1648 147
2059750 2020-12-09 1724 480 L Cheboksary RUS eu LO36pc 383 385 15.09 1647 1024 120
2059749 2020-11-17 1718 348 QT Quetta PAK as MM30lf 1020 31.35 4910 3051 122
2059748 2020-11-13 1700 450 U Millerovo RUS eu LN08dw 1019 1022 14.97 2115 1314 145
2059747 2020-11-04 0200 336 QQ Qaanaaq GRL na FQ57il 407 5.76 3064 1904 332
2059746 2020-10-29 1900 403 MRD Mardin TUR as LM07hf 1024 10.08 3371 2094 153
2059745 2020-10-28 2300 308 UF UNID XUU xx 1023 8.36
2059744 2020-10-27 2059 242 H Engels-2 RUS eu LO31cl 1027 1029 14.59 2035 1264 131
2059743 2020-10-27 1900 625 MB Krasnodar RUS eu KN95lc 387 391 14.36 2488 1546 151
2059742 2020-10-14 1800 640 C Komsomolskoye RUS eu LO30ms 997 14.95 2132 1325 131
2059741 2020-09-20 1900 618 GI UNID XUU xx 1009 1032 10.05
2059740 2020-08-29 2000 312.5 KML Kamishly SYR as LM07oa 1017 10.08 3405 2116 152
1927126 2020-08-21 1842 985 BY Brest BLR eu KO12xc 399 402 15.01 1543 959 180
1927124 2020-08-20 1906 785 DI Kosubyevskoe RUS eu LN04vq 427 428 15.02 2598 1614 146
1927125 2020-08-20 1906 753 T Seshcha RUS eu KO63qr 1021 14.97 1455 904 154
1927123 2020-08-14 2200 367 K Chelyabinsk / Balandino RSE as MO05sh 1029 10.05 2312 1437 102
1927122 2020-08-14 2100 426 WL Baolong CHN as OK48ql 1082 1107 20.65 7926 4924 86
1927121 2020-08-12 1906 842 N Vinnytsia / Gavryshivka UKR eu KN49hf 1019 1022 14.89 1881 1169 169
1927119 2020-08-11 1907 715 D Odessa / Central UKR eu KN56ik 983 981 12.12 2209 1372 166
1927120 2020-08-11 1907 930 O Zernograd RUS eu LN06et 991 15.03 2340 1454 147
1927118 2020-08-08 0100 350 MUT Muret / Lherm FRA eu JN03ol 7 20.53 2863 1779 220
1927117 2020-08-05 1903 618 TB Akhtubinsk RUS eu LN38dh 1010 1031 10.05 2351 1461 135
1927116 2020-07-30 2200 328 NRA Radom POL eu KO01pj 1002 1001 7.2 1629 1012 186
1861385 2020-04-17 1858 1016 B Budennovsk RUS eu LN24at 1029 1027 14.93 2644 1643 143
1861384 2020-04-16 1844 670 PB Vologda-Kipelovo RUS eu KO99ne 1010 1065 14.93 1075 668 127
1861381 2020-04-13 1839 1215 N Ufa RUS eu LO74wm 993 1006 15.02 2132 1325 111
1861382 2020-04-13 1839 660 KI Tengiz KAZ as LN66rh 1013 1017 10.05 2793 1735 126
1861383 2020-04-13 1839 1155 BF Krasnyj Kut RUS eu LO30lw 998 1012 15.08 2113 1313 131
1861380 2020-04-10 1833 740 NE Metilopol UKR eu KN76pu 973 1061 15 2228 1384 157
1854075 2020-04-07 1800 489 OI Donskoye KAL eu JO94xw 396 401 14.92 1247 775 192
1854074 2020-04-04 1645 660 GV Kolyvan RSE as NO15ih 1009 1009 30.08 3265 2029 82
1854073 2020-04-02 2100 493 C Papa HNG eu JN87rj 974 975 29.97 2102 1306 193
1848070 2020-03-28 2200 265 OO Oran / Es Senia ALG af IM95tr 12.93 3720 2312 217
1848071 2020-03-28 2200 407 AP Ashgabat TKM xx LM97ex 400 8.75 3803 2363 127
1848069 2020-03-28 0300 350 GM Malaga ESP eu IM76rr 1015 7.49 3738 2323 223
1848068 2020-03-26 2159 410 3FER4 Crane Vessel Sleipnir XOE iw JO21cw 395 17.24 1913 1189 224
1838405 2020-03-25 1900 404 LN Vanavara RSE as OP10di 399 402 20 3714 2308 61
1833072 2020-03-19 1700 347 D Kazan / Borisoglebskoye RUS eu LO45nu 1020 1025 10.05 1741 1082 118
1833071 2020-03-16 2200 330 DYB Diyarbakir TUR as LM07cu 1022 6.88 3295 2047 153
1833070 2020-03-15 2330 339 TDF Tindouf ALG af IL57wq 16 15.59 4798 2981 223
1826075 2020-03-11 1700 409 CL UNID XUA xx 1065 13.95
1826074 2020-03-09 1904 1290 BO Bohdanivka UKR eu KO50kp 1001 1013 30.37 1749 1086 163
1826073 2020-03-09 1900 402 RQ Ningshan CHN as OM43dh 1031 1029 20.94 50 6405 3980 79
2350163 2020-03-09 1900 249 V Yinchuan/Hdong CHN as 1140 9.32
1826070 2020-03-09 1700 301 GJ Jingdezhen CHN as OL89ng 1067 1077 14.35 7193 4469 74
1826071 2020-03-09 1700 254 HG Wuhan/Tianhe CHN as OM70ew 1022 8.6 6908 4292 76
1826072 2020-03-09 1700 358 OX Bose CHN as OL33hv 1201 21.55 500 7259 4511 86
2350162 2020-03-09 1700 312 FR Wufengxi CHN as OM20fo 1099 13.01 6498 4038 84
1826068 2020-03-04 1859 408 P Olenya RUS eu KP68rd 1008 1010 15 473 294 55
1826069 2020-03-04 1859 358 PC UNID XUU xx 412 405 4.83
1817945 2020-02-29 1859 372 FN Dushanbe TJK as MM48jn 1018 1022 15.01 4148 2577 114
1817946 2020-02-29 1859 307 LA Lazarevskoye RUS eu KN93pw 403 20 2620 1628 151
1817944 2020-02-15 2330 427.5 OB Overberg AFS af KF05dj 1026 1011 8.76 400 11188 6952 183
1817943 2020-02-15 0430 268 ZWL Wollaston Lake SK CAN na DO88jc 404 10.16 1000 5539 3441 326
1817940 2020-02-14 1657 795 BR Bukhara UZB as MM29ft 1041 1046 15.05 3850 2392 118
1817941 2020-02-14 1657 795 R Krasnoyarsk RSE as NO66ge 1018 1023 20 3631 2256 73
1817942 2020-02-14 1657 740 SZ Ivanovo North RUS eu LO07lb 938 1145 14.84 1328 825 130
1817938 2020-02-14 1600 568 PD Kant / Bishkek KGZ as MN72jv 1019 1022 14.88 3988 2478 104
1817939 2020-02-14 1600 455 NS Chuguyev UKR eu KN89hu 1003 1007 14.91 1932 1201 151
1803376 2020-02-09 1748 925 N Chuguyev RUS eu KN89ht 960 963 15.19 1937 1203 151
1803377 2020-02-09 1748 715 C Caslav CZE eu JN79rw 1050 1029 6.18 1850 1150 199
1803375 2020-02-09 1504 1215 P Ufa RUS eu LO74wo 987 989 15.49 2125 1320 111
1803373 2020-02-08 1435 983 RG Urgench UZB as MN01ho 1011 1015 15 3524 2189 121
1803374 2020-02-08 1435 960 L St Petersburg / Pulkovo RUS eu KO59dt 399 398 10.05 754 469 152
1803371 2020-02-08 0200 286.5 TA Villacoublay / Velizy FRA eu JN18bs 25 20.37 25 2294 1426 224
1803372 2020-02-08 0200 382 JSV Johan Sverdrup XOE iw JO18gu 402 395 14.78 1350 839 244
1803370 2020-02-08 0000 378 LU Le Luc / Le Cannet FRA eu JN33gj 400 401 10.12 25 2729 1696 211
1803366 2020-02-07 1655 753 B Sesha RUS eu KO63pr 1014 1012 15.04 1453 903 155
1803367 2020-02-07 1655 730 AL Kaliningrad / Chkalovsk KAL eu KO04es 1017 1020 14.88 1262 784 190
1803368 2020-02-07 1655 797 YuP Buturlinovka RUS eu LO00ht 1015 1014 30.34 1930 1199 142
1803369 2020-02-07 1655 780 N Anapa / Vityazevo RUS eu KN84px 1044 1039 9.99 2468 1533 154
1803364 2020-02-06 2050 687 R Dnipropetrovsk UKR eu KN78ni 989 14.74 2063 1282 156
1803365 2020-02-06 2050 740 S Makhachkala / Uytash RUS eu LN32ut 431 15.22 2956 1837 138
1803363 2020-02-06 1800 650 N Salekhard RUS eu MP36gn 400 20 1866 1159 68
1803361 2020-02-06 1517 732 KP Soltchy RUS eu KO58dd 377 382 14.99 929 577 156
1803362 2020-02-06 1517 1016 A Budennovsk RUS eu LN24at 1006 15.06 2644 1643 143
1803360 2020-02-06 0200 332 LL Lille / Lesquin FRA eu JO10on 404 10.19 2081 1293 224
1803358 2020-02-05 1500 740 H Makhachkala / Uytash RUS eu LN32tt 1030 10.05 2954 1835 138
1803359 2020-02-05 1500 750 G Kapustin Yar RUS eu LN28uq 1013 14.97 2295 1426 136
1803356 2020-02-04 2200 618 NK Akhtubinsk RUS eu LN38dh 1012 1028 10.05 2351 1461 135
1803357 2020-02-04 2200 534 FED Floatel Endurance / ZCEK4 XOE iw JO08un 398 399 10.08 1407 874 244
1803355 2020-02-04 1910 930 R Zernograd RUS eu LN06eu 1012 1017 15.27 2335 1451 147
1803354 2020-02-04 1730 215 AL Halim Perdanakusuma INS as OI33mt 1020 8.53 10320 6412 98
1803352 2020-02-04 1719 920 GW Primorsko Ahtarsk RUS eu KN96cb 1041 1050 14.89 2370 1473 152
1803353 2020-02-04 1719 760 K Kosubyevskoe RUS eu LN04vq 404 409 15.55 2598 1614 146
1803350 2020-02-03 1712 1061 GO Gorevoe RUS eu NO66hp 1015 1026 29.9 3598 2236 72
1803351 2020-02-03 1712 995 N Kemerovo RUS eu NO35bg 392 402 15.01 3421 2126 79
1803348 2020-02-03 1700 333 NS Nanxiong CHN as OL75dc 1017 7.48 50 7483 4649 78
1803349 2020-02-03 1700 281 JW Yongfu CHN as OM70gx 1092 11.11 6911 4294 75
2350160 2020-02-03 1700 415 H Ganzhou CHN as OL63pd 1115 1113 9.1 7634 4743 80
2350161 2020-02-03 1700 388 W Changsha / Huanghua CHN as OL68oe 1102 10.77 7128 4429 78
1803347 2020-02-03 1600 342 WA Wongyuan CHN as OL74bi 1044 1031 7.08 7550 4691 79
1803346 2020-02-02 1700 204 UJ Gaolan CHN as OL61pv 1063 1061 10.89 7759 4821 81
1803342 2020-02-02 1600 250 DS Heliushui CHN as OM30ke 6 68.64 6648 4131 82
1803343 2020-02-02 1600 263 PL Phitsanulok THA as OK06dt 1027 1025 56.81 500 7683 4773 95
1803344 2020-02-02 1600 245 GJ Laoliangcang CHN as OL68cb 1052 1008 10.96 7096 4409 79
1803345 2020-02-02 1600 249 RO Sanjiang CHN as OL45ts 1199 1185 13.5 500 7208 4479 82
2350159 2020-02-02 1600 213 QP Ertangzhen CHN as OL54jp 1035 14.84 50 7372 4581 82
1803341 2020-02-01 1900 544 LFDG Askepott Drilling Rig XOE iw 1021 1020 8.09
1791767 2020-01-28 1440 950 TK Omsk / Tsentralniy RSE as MO64qx 2870 1783 91
1791768 2020-01-28 1440 705 S Syktyvkar RUS eu LP51kp 1389 863 97
1791769 2020-01-28 1440 794 ER Moscow / Sheremetyevo RUS eu KO85rx 1321 821 140
1791770 2020-01-28 1440 862 R Plesetsk RUS eu LO02fr 1731 1075 140
1791771 2020-01-28 1440 804 N Severomorsk-1 RUS eu KP69qb 523 325 44
1791772 2020-01-28 1440 785 IU Beloyarsk RSE as MP33ir 400 1991 1237 77
1791766 2020-01-27 1518 735 N Vyazma RUS eu KO75ee 1322 821 150
1791765 2020-01-23 2300 400 B Valencia / Manises ESP eu IM99sl 3328 2068 219
1791764 2020-01-20 2200 329 RA Lara TUR as KM56ju 3268 2030 168
1791763 2020-01-16 2300 292 NOV Novara (NO) ITA eu JN45jk 2460 1529 209
1791761 2020-01-15 0500 394 DQ Dawson Creek BC CAN na CO95xr 50 6149 3821 336
1791762 2020-01-15 0500 317 VC La Ronge SK CAN na DO75ic 500 5895 3663 326
1791760 2020-01-14 2230 386 PAO Paros GRC eu KM27na 3221 2001 178
1791759 2020-01-13 0200 410 DN Varandej RUS eu LP98du 1476 917 62
1791758 2020-01-12 0200 410 WR Varandej RUS eu LP98bt 1470 913 62
1791757 2020-01-10 1900 309 ISR Iranshar IRN as ML07if 4993 3102 131
1791756 2020-01-10 0100 328 BLK Blackbushe ENG eu IO91nh 2147 1334 232
1791755 2020-01-09 1900 316 SM Samui THA as OJ09an 400 8405 5222 98
1791754 2020-01-08 2030 375 RN Ranong THA as NJ99hs 400 8320 5170 100
2350158 2020-01-08 2030 315 4JRW Vessel Khankendi XOA iw 396 8.05
1791753 2020-01-08 1900 292 THS Sukhothai THA as NK97vf 7618 4733 95
2350157 2020-01-08 1900 511 WRL UNID XUA xx 1019 8
1791752 2020-01-07 2030 414 CR Camranh VTN as OK42oa 8569 5324 89
1791751 2020-01-07 0200 415 SLU Castries (Saint Lucia) LCA ca FK94la 100 8363 5196 271
1791750 2020-01-06 2159 365 RB Ajaccio / Campo del Oro COR eu JN41jw 2835 1762 207
1791748 2020-01-06 1859 365 CA Cirebon INS as OI43gh 10438 6486 97
1791749 2020-01-06 1859 400 JB Jaybee MLA as OJ11ul 80 9391 5835 98
1791747 2020-01-06 1829 330 DL DALAT VTN as OK41dd 1000 8616 5354 90
2350156 2020-01-06 1829 300 NDG Diego Garcia DGA as MI62eq 1032 8.17 9034 5613 131
1791746 2020-01-05 1600 323 CAR Carnarvon WE AUS oc OG65uc 12506 7771 100
1791745 2020-01-03 1803 332 TK Tak THA as NK96pv 50 7629 4740 96
1791744 2020-01-03 1603 277 CT Chiang Rai THA as NK99wd 400 7429 4616 94
1791742 2020-01-03 0300 397 ZST 'Alpine' Saint John NB CAN na FN75af 50 5512 3425 292
1791743 2020-01-03 0300 405 CON Concepcion PRG sa GG16gn 200 12002 7457 252
1791740 2020-01-03 0200 356 SUH 'Sprucehead' Rockland ME USA na FN54kb 25 5754 3575 293
1791741 2020-01-03 0200 318 BPL Blackpool ENG eu IO83ls 2002 1244 240
1791739 2020-01-02 1729 326 CI Ust-Kut RSE as OO26vu 4134 2569 63
1791738 2020-01-02 1600 362 HL Houlung TWN as PL04jp 50 7814 4855 73
2350153 2020-01-02 1600 320 BG Tura / Gorny RUS eu OP04fh 1011 15.2 3354 2084 56
2350154 2020-01-02 1600 572 WY Hangzhou-Xiaoshan CHN as PM00cc 1147 10.92 7243 4501 71
2350155 2020-01-02 1600 522 RW UNID XUU xx 1023 1020 30.77
1791735 2020-01-02 0713 368 ZP Sandspit BC CAN na CO43ce 6607 4105 343
1791736 2020-01-02 0713 344 XX Abbotsford BC CAN na CN89sa 6912 4295 335
1791737 2020-01-02 0713 224 QM Moncton NB CAN na FN76rc 400 5371 3337 291
1791734 2020-01-02 0430 402 LW 'Haget' Lawrence MA USA na FN42jp 5976 3713 294
1791732 2020-01-02 0200 216 ME Matane QC CAN na FN68ft 100 5243 3258 296
1791733 2020-01-02 0200 344 JA 'Dinns' Jacksonville FL USA na EM90cl 400 7609 4728 296
1791731 2020-01-01 2200 374 BGC Bergerac / Roumaniere FRA eu JN04ht 25 2743 1704 222
1791730 2020-01-01 1900 650 L Igarka RSE as NP37hk 2639 1640 57
1793576 2020-01-01 1800 475 PT Petrovskoye RUS eu LO01cr 1014 1019 30 1825 1134 142
1793577 2020-01-01 1800 475 PT Jingtai CHN as OM27ae 1083 1092 35.18 5840 3629 81
1791727 2020-01-01 1729 215 SK Pinang Sore INS as NJ91kn 9168 5696 103
1791728 2020-01-01 1729 240 BA Blora INS as OI53ra 10599 6585 95
1791729 2020-01-01 1729 350 OC Semarang INS as OI53ea 750 10550 6555 96
2350152 2020-01-01 1729 514 CN Irkutsk RUS eu OO22dg 391 410 20.01 4462 2772 69
1791726 2020-01-01 0200 391 MA Manitsoq (Kitaa) GRL na GP35mj 3303 2052 305
1793565 2020-01-01 0200 379 DL 'Pykla' Duluth MN USA na EN36tu 1019 5.9 6353 3948 313
1793566 2020-01-01 0200 332 FIS 'Fish Hook' Key West FL USA na EL94cn 1061 8.1 400 8208 5100 294
1793567 2020-01-01 0200 270 ZNF 'Wabana' Saint John's NL CAN na GN37no 373 10.63 4731 2940 283
1793568 2020-01-01 0200 410 PEL Ponta Pelada / Manaus (AM) BRA sa GI06au 1032 1028 6.97 10056 6248 263
1793569 2020-01-01 0200 356 YBG Bagotville QC CAN na FN48ki 1040 8.3 5430 3374 298
1793570 2020-01-01 0200 382 TRI 'Piarco' Port of Spain TRD ca FK90go 1017 8.12 1200 8728 5423 270
1793571 2020-01-01 0200 302 CAI Canouan Island VCT ca FK92hq 1023 8.12 8513 5289 271
1793572 2020-01-01 0200 340 OIA Oiapoque (AP) BRA sa GJ43cu 1024 1017 8.12 100 8978 5578 258
1793573 2020-01-01 0200 386 SP St. Pierre SPM na GN16vs 408 10.12 4953 3077 285
1793574 2020-01-01 0200 385 PTP Pointe a Pitre GDL ca FK96eg 405 10.3 8163 5072 272
1793575 2020-01-01 0200 402 MQ Miquelon (Grande Miquelon) SPM na GN17tc 407 10.15 4929 3063 286
1763436 2019-12-31 1600 440 PB Phubai VTN as OK36vj 400 8064 5010 88
1763435 2019-12-31 1335 390 HBT Sand Point (Borland) AK ALS na AO95rh 6522 4052 3
1763434 2019-12-31 0400 370 YBV Berens River MB CAN na EO12li 25 5948 3696 319
1763433 2019-12-31 0230 408 MW 'Pelly' Moses Lake WA USA na DN07ic 7055 4384 332
1763431 2019-12-31 0200 426 SH Shobdon ENG eu IO82nf 2136 1327 237
1763432 2019-12-31 0200 327 TNL Tatenhill ENG eu IO92ct 2041 1268 236
1763429 2019-12-30 2200 405 IL Sarajevo / Ilidza BIH eu JN93et 2489 1546 190
1763430 2019-12-30 2200 316 GZP Gazipasa TUR as KM66dh 3342 2077 166
1763427 2019-12-30 0159 326 FC Fredericton NB CAN na FN65qw 1600 5474 3401 293
1763428 2019-12-30 0159 373 YXK Rimouski QC CAN na FN58rl 25 5315 3302 296
1763426 2019-12-29 2159 306.5 AV Avord FRA eu JN16lv 2459 1528 220
1763425 2019-12-29 1455 925 U Chuguyev UKR eu KN89hu 1932 1201 151
1763424 2019-12-29 0200 232 GP Gaspe QC CAN na FN78ts 400 5117 3180 293
1763422 2019-12-28 2200 326 NXO Naxos GRC eu KM27qb 3216 1998 177
1763423 2019-12-28 2200 375 SMO Samos GRC eu KM37kq 50 3151 1958 175
1763421 2019-12-28 1900 362 RU Sevastopol - Belbek UKR eu KN64tq 2437 1514 161
1763419 2019-12-28 1513 700 K St Petersburg / Pulkovo RUS eu KO59ct 753 468 152
1763420 2019-12-28 1513 940 SQ Vladimir RUS eu LO06dd 1391 864 133
1763417 2019-12-27 2200 370 CUL Culdrose RNAS ENG eu IO70ib 2430 1510 237
1763418 2019-12-27 2200 363 ZEL Zelten LBY af JL98vw 4129 2565 186
1763416 2019-12-26 1600 277 ACE 'Kachemak' Homer AK ALS na BO49gp 6041 3753 357
1763415 2019-12-26 0718 214 DA Dawson YT CAN na CP04ja 5496 3415 350
1763413 2019-12-25 0727 326 XJ Fort St. John BC CAN na CO96ng 100 6107 3794 337
1763414 2019-12-25 0727 254 SM Fort Smith AB CAN na DO49bx 400 5545 3445 332
1763412 2019-12-25 0600 289 YLQ La Tuque QC CAN na FN37oj 500 5587 3471 299
1763410 2019-12-24 2200 397 PO Pau / Pyrenees FRA eu IN93wh 2920 1814 222
1763411 2019-12-24 2200 345 VTA Vitoria ESP eu IN82pw 3039 1889 225
1763406 2019-12-24 1600 390 OU Banjarmasin INS as OI76jn 10390 6456 90
1763407 2019-12-24 1600 255 MD Manado INS as PJ21kl 10344 6427 79
1763408 2019-12-24 1600 212 DJ Danang VTN as OK45cx 1000 8124 5048 88
1763409 2019-12-24 1600 393 KC Laibin CHN as OL43or 500 7393 4593 84
1763405 2019-12-24 0200 323 TAB Crown Point TRD ca FK91nd 8646 5372 269
1763404 2019-12-23 1600 325 KLH Kalaleh IRN as LM77rj 3761 2337 131
1763403 2019-12-22 1600 283 DUT 'Dutch Harbor' Unalaska AK ALS na AO63rv 1000 6655 4135 7
1763402 2019-12-21 1900 332 NV Amsterdam / Schiphol HOL eu JO22jd 15 1874 1165 224
1763401 2019-12-21 1600 323 TU Aktyubinsk KAZ as LO80pf 2568 1596 116
1763395 2019-12-19 1900 400 I Lipetsk RUS eu KO92sq 1709 1062 142
1763396 2019-12-19 1900 401 MGD Maningrida NN AUS oc PH77cw 12137 7541 76
1763397 2019-12-19 1900 384 SY Xishui CHN as OM70pk 6997 4348 75
1763398 2019-12-19 1900 600 US Zagatala AZE as LN31ho 3051 1895 141
1763399 2019-12-19 1900 388 GDR Igdir TUR as LM19wx 3149 1957 146
1763400 2019-12-19 1900 360 AB Abakan RSE as NO53qq 3782 2350 77
2350151 2019-12-19 1900 431 FC Unknown XUA xx 404 397 5.35
1763394 2019-12-19 1600 483 R UNID - Zhitomir ??? XUE xx
1763391 2019-12-17 1600 295 JH UNID XUA xx
1763392 2019-12-17 1600 416 Q Shenzhen/Baoan CHN as OL62vp 7706 4788 80
1763393 2019-12-17 1600 384 TRT Trat THA as OK12dd 8244 5122 95
2350149 2019-12-17 1600 324 OZR Ozar IND as ML60wc 393 402 6.69 6216 3862 119
2350150 2019-12-17 1600 359 ZS Yanzhuang CHN as OM88jt 1143 20.21 6241 3878 69
1763389 2019-12-17 0300 336 AA Aasiaat GRL na GP38or 3088 1919 310
1763390 2019-12-17 0300 245 CB Cambridge Bay NU CAN na DP79lc 1000 4490 2790 334
1763384 2019-12-17 0200 344 YGV Havre St Pierre QC CAN na FO80eg 25 4950 3075 294
1763385 2019-12-17 0200 359 YQZ Quesnel BC CAN na CO82sx 500 6487 4030 337
1763386 2019-12-17 0200 346 1D Charlottetown NL CAN na GO12ws 4415 2743 291
1763387 2019-12-17 0200 365 AA 'Kenie' Fargo MN USA na EN17oa 100 6478 4025 316
1763388 2019-12-17 0200 385 YNC Wemindji QC CAN na FO03oa 25 5284 3283 307
1763383 2019-12-16 2200 402 YZD Yazd Shahid Sadooghi IRN as LM71dv 4296 2669 136
1763382 2019-12-16 1900 470 YJ Yunnan CHN as OL03au 6966 4328 92
1763381 2019-12-16 1600 383 NT Narathiwat THA as OJ06um 400 8788 5461 98
1763380 2019-12-15 0200 350.5 AMZ Aoka Mizu FPSO XOE iw JO07hv 1504 935 244
1763378 2019-12-14 1900 457 PRG Persian Gulf IRN as LL67ij 4724 2935 140
1763379 2019-12-14 1900 434 KJ Hohhot / Baita CHN as ON50wu 5834 3625 72
1763377 2019-12-14 0200 340 ZJT Stephenville NL CAN na GN08tn 4883 3034 288
1763376 2019-12-13 1600 335 PP UNID XUU xx
1763375 2019-12-11 1600 410 RI Boguchany RSE as NO88qj 3664 2277 67
1763373 2019-12-10 1600 414 UP Rayong / U-Taphao Int. THA as OK02lp 8133 5054 96
1763374 2019-12-10 1600 398 L Korenovsk RUS eu KN95rk 2464 1531 150
1763371 2019-12-09 1600 341 GHN UNID XUU xx
1763372 2019-12-09 1600 266 LA UNID XUU xx
1763370 2019-12-07 0200 345 MB Yamburg RSE as MP78ma 2163 1344 60
1763369 2019-12-06 0200 393 EMW East Midlands ENG eu IO92gt 15 2028 1260 236
1763367 2019-12-05 0200 343 YZH Slave Lake AB CAN na DO25oh 282 6091 3785 332
1763368 2019-12-05 0200 390 AES 'Nabesna' Northway AK ALS na BP92bx 5630 3498 351
1763366 2019-12-04 1900 315 TM Roschino / Tyumen RSE as MO27qf 2337 1452 94
1763365 2019-12-03 1401 385 EHM Cape Newenham AK ALS na AO88xp 100 6148 3820 3
1763364 2019-12-03 0600 534 LEWU Transocean Enabler XOE iw
1763363 2019-12-02 1900 315 LS Igarka RSE as NP37gl 2634 1637 57
1763362 2019-12-02 1830 534 LF6W Grane / Norsk Hydro Platform XOE iw JO19fd 1331 827 245
1763361 2019-12-02 1600 350 VTR 'Takotna River' McGrath AK ALS na BP22fw 5680 3529 359
1763360 2019-12-02 1411 233 ALJ Orca Bay - Hinchinbrook Island AK ALS na BP60ql 1000 5932 3686 354
1763359 2019-12-02 0200 285 UHA Quaqtaq QC CAN na FP51eb 500 4238 2633 308
1763358 2019-12-01 1600 385 SG Mirnyj RUS eu OP72bn 3988 2478 51
1763357 2019-12-01 0200 332 VT Buffalo Narrows SK CAN na DO55su 500 5895 3663 328
1763356 2019-11-30 1600 443 YL Chifeng CHN as ON92jh 5987 3720 65
1763355 2019-11-29 1600 360 GT Tazovskiy RSE as MP79il 2105 1308 56
1763354 2019-11-29 0200 212 YGX Gillam MB CAN na EO26pi 5483 3407 320
1763353 2019-11-27 2200 335 RIM Rimini (RN) ITA eu JN64gb 25 2535 1575 201
1763349 2019-11-27 1900 440 ID Nanjing CHN as OM91iq 7022 4363 71
1763350 2019-11-27 1900 435 C UNID XUA xx
1763351 2019-11-27 1900 356 LH Huguang CHN as OL51ed 500 7703 4786 84
1763352 2019-11-27 1900 345 RA Shangxian CHN as OM43xv 6422 3990 78
1763347 2019-11-27 1600 323 AE im.Yu.Korchagina XOE iw
1763348 2019-11-27 1600 436 JA Yichang CHN as OM50pq 6796 4223 78
1763346 2019-11-26 1900 372 FX Hobbot / Baita CHN as ON50vu 5831 3623 72
1763339 2019-11-26 1600 390 RL Krasnoyarsk RSE as NO66hd 3638 2260 73
1763340 2019-11-26 1600 456 ZT UNID XUA xx
1763341 2019-11-26 1600 405 LI Krasnoselkupsk RSE as NP15fs 2559 1590 63
1763342 2019-11-26 1600 365 UA Syzran / Northeast RUS eu LO43gf 1952 1213 124
1763343 2019-11-26 1600 291 KB Yibin CHN as OL28ht 6682 4152 85
1763344 2019-11-26 1600 306 BJ UNID XUU xx
1763345 2019-11-26 1600 374 BS Bratsk RSE as OO06vi 4011 2492 66
1763337 2019-11-26 0200 298 NA Nyagan RSE as MP22td 2026 1259 82
1763338 2019-11-26 0200 298 LS Nyagan RSE as MP22tb 2031 1262 82
1763333 2019-11-25 0200 276 YPC Paulatuk NT CAN na CP76xi 5084 3159 342
1763334 2019-11-25 0200 224 BK Baker Lake NU CAN na EP14xh 1000 4750 2951 326
1763335 2019-11-25 0200 339 GI Amiens / Glisy FRA eu JN19fu 2176 1352 225
1763336 2019-11-25 0200 365 MA Mayo YT CAN na CP23bp 500 5510 3423 348
1763324 2019-11-24 1600 409 DO Zhoukou CHN as OM73ho 6656 4136 74
1763325 2019-11-24 1600 520 DA Ulanbataar MNG as ON37iv 4955 3078 71
1763326 2019-11-24 1600 420 CS Osa RUS eu OO13wj 4347 2701 68
1763327 2019-11-24 1600 363 DY Yabrai CHN as OM19jk 5570 3461 80
1763328 2019-11-24 1600 361 LZ Liling CHN as OL67sp 7197 4472 78
1763329 2019-11-24 1600 398 SQ Changzhi CHN as OM66nf 6334 3936 74
1763330 2019-11-24 1600 320 DU Batajnica SRB eu KN04dw 2351 1460 187
1763331 2019-11-24 1600 387 HG UNID CHN as
1763332 2019-11-24 1600 525 MU Muren MNG as ON09cp 4516 2806 74
1763322 2019-11-24 0200 342 VA Vannes / Meucon FRA eu IN87qs 2552 1586 230
1763323 2019-11-24 0200 397 BLB Blois / Le Breuil FRA eu JN07oq 2432 1511 224
1763321 2019-11-23 2200 307 CTP Cengiz Topel TUR as KN50br 2833 1760 169
1763319 2019-11-23 1900 475 PT Petrovskoye RUS eu LO01cr 1825 1134 142
1763320 2019-11-23 1900 435 DM Zedang CHN as NL59vg 6057 3763 97
1763315 2019-11-22 2200 348 ZK Zadar HRV eu JN74qc 2489 1546 196
1763316 2019-11-22 2200 257 BS Benghazi / Benina LBY af KM02da 3784 2351 185
1763317 2019-11-22 2200 346 LAM Lamerd IRN as LL67oi 4743 2947 140
1763318 2019-11-22 2200 534 R Ostrava / Mosnov / Rada CZE eu JN99bq 1843 1145 193
1763313 2019-11-22 1900 346 AG UNID XUU xx
1763314 2019-11-22 1900 403 TKT Tokat TUR as KN80eh 2957 1838 158
1763312 2019-11-21 2200 312 DAN Danilvograd For Podgorica MNE eu JN92nn 2621 1629 189
1763309 2019-11-21 1900 430 ERN Erzincan TUR as KM99sq 3083 1916 153
1763310 2019-11-21 1900 327 ARZ Arzanah UAE as LL64gt 4995 3104 142
1763311 2019-11-21 1900 389 K Anadyr RSE as RP84ur 5327 3310 14
2178092 2019-11-21 1900 201 KIH Kish Island IRN as LL66xm 4854 3016 139
2178093 2019-11-21 1900 351 AR Amritsar ??? IND as MM71jq 5076 3154 112
1763302 2019-11-21 0300 258 ZSJ Sandy Lake ON CAN na EO33hb 500 5767 3584 317
1763303 2019-11-21 0300 385 QV Yorkton SK CAN na DO81rf 100 6219 3864 322
1763304 2019-11-21 0300 391 4W Kelsey MB CAN na EO16ra 25 5569 3460 321
1763305 2019-11-21 0300 353 IN 'Raize' International Falls MN USA na EN38il 100 6221 3865 314
1763306 2019-11-21 0300 244 TH Thompson MB CAN na EO15bt 1000 5627 3496 321
1763307 2019-11-21 0300 332 QT Thunder Bay ON CAN na EN58gi 1000 6107 3794 311
1763308 2019-11-21 0300 346 YXL Sioux Lookout ON CAN na EO40bc 1000 6013 3736 314
1763301 2019-11-19 0300 345 ON Yamburg RUS eu MP77nw 2170 1348 61
2178091 2019-11-19 0300 365 YGZ Grise Fiord NU CAN na EQ86nk 100 3410 2119 333
1763299 2019-11-19 0200 323 KR Squaw Schefferville QC CAN na FO64ot 250 4671 2902 300
1763300 2019-11-19 0200 212 SJ Saint John NB CAN na FN75cj 1000 5490 3411 292
2178088 2019-11-18 1710 394 QC UNID XUA xx
2178089 2019-11-18 1710 351 UC Hailar / Dongshan CHN as ON99xf 5378 3342 60
2178090 2019-11-18 1710 360 OX Iwo Jima VOI as QL04ps 1250 8636 5366 55
2350147 2019-11-18 1710 420 Z Nanjing CHN as OM91kr 1152 9.54 7025 4365 71
2350148 2019-11-18 1710 425 W Nantong CHN as PM02lb 1072 9.32 7081 4400 69
1763296 2019-11-18 1640 377 F Shijiazhuang/Zhengding/Wuji CHN as OM98jg 6378 3963 68
1763297 2019-11-18 1640 528 O Shijiazhuang / Zhengdeng / Wuji CHN as OM78ig 6205 3855 71
1763298 2019-11-18 1640 514 YV Tanghehou CHN as ON80hr 6049 3758 68
2178087 2019-11-18 1640 213 FC Fujiazhuang CHN as PM08tu 6439 4001 65
2350144 2019-11-18 1640 469 HI Khabarovsk RSE as PN78on 1016 20 100 6007 3732 49
2350145 2019-11-18 1640 463 TWC Unknown XUA xx 1019 1020 8
2350146 2019-11-18 1640 312 MR Kueijen TWN as PL02dx 1017 4.13 7960 4946 74
1763295 2019-11-18 0400 402 CAR Villasimius / Capo Carbonara (CA) SAR eu JM49sc 40 3127 1943 204
1763294 2019-11-12 2300 429 LIO Limnos GRC eu KM29ow 2896 1800 177
1763293 2019-11-10 2200 335 POD Podgorica MNE eu JN92pj 2639 1639 188
1763292 2019-11-10 0400 233 UM Churchill Falls NL CAN na FO73vo 4675 2905 297
1763291 2019-11-10 0100 356 CVU Castres / Mazamet FRA eu JN13cp 2816 1750 218
1763290 2019-11-09 0300 332 SHM Shoreham ENG eu IO90ut 2174 1351 231
1763289 2019-11-08 1706 560 FG Kazan / Yudino RUS eu LO45mu 1738 1080 118
1763288 2019-11-08 0500 221 YAS Kangirsuk QC CAN na FP40xa 500 4341 2697 307
1763287 2019-11-08 0400 218 YXP Pangnirtung NU CAN na FP76dd 3699 2298 312
1763286 2019-11-07 0500 400 GJM Guajara (RO) BRA sa FH79if 11070 6878 264
1763285 2019-11-06 1900 325 KLH Kalaleh IRN as LM77rj 3761 2337 131
1763284 2019-11-06 0200 360 JAC Jacare-a-Canga (PA) BRA sa GI13cs 10272 6382 260
1763283 2019-11-06 0100 334 DX Dax / Seyresse FRA eu IN93lq 2910 1808 224
1763282 2019-11-05 2300 351 CST Costix for Palma De Mallorca BAL eu JM19kp 65 3218 2000 215
1763281 2019-11-05 2200 392 KOR Korinthos for Athens GRC eu KM17lw 40 3119 1938 181
1763279 2019-11-05 0100 432 PRD Peyrehorade FRA eu IN93km 2929 1820 224
1763280 2019-11-05 0100 291 WS Grenoble / St Geoirs FRA eu JN25ni 2558 1589 215
1763278 2019-11-04 1711 265 PI Semarang / Ahmad Yani (Central Java) INS as OI52jt 10590 6580 95
2350140 2019-11-04 1711 388 J Akesu CHN as NN01dg 1107 1096 9.77 4383 2724 100
2350141 2019-11-04 1711 208 PK Shanghai / Hongqiao / Nanxiang CHN as PM01pg 1095 13.91 7174 4457 69
2350142 2019-11-04 1711 448 BPD Penglai CHN as PM08bi 347 6.55 6426 3993 67
2350143 2019-11-04 1711 406 SHWE UNID XUA xx 406 399 6.15
1763277 2019-11-03 2300 413 GEY Antalya TUR as KM56fv 3260 2026 169
1763273 2019-11-03 2200 362 EBT Betera / Valencia ESP eu IM99so 3315 2060 219
1763274 2019-11-03 2200 413 SAK Casablanca / Mohamed V MRC af IM63dm 4173 2593 226
1763275 2019-11-03 2200 364 PU Pau / Pyrenees FRA eu IN93uh 2925 1817 222
1763276 2019-11-03 2200 300 OEB Oum El Bouaghi ??? ALG af JM35pu 3523 2189 206
1763272 2019-11-03 1900 443 WCH UNID XUU xx
1763271 2019-11-03 1800 336 KTH Kutahya TUR as KM59kh 2997 1862 168
1763270 2019-11-02 0200 322 LCY London / City ENG eu JO01am 2095 1301 231
1756186 2019-10-31 0000 458 QM Minsk / Machulishchi BLR eu KO33st 1366 849 170
1756185 2019-10-29 2200 375 CV Calvi / Ste Catherine COR eu JN42jn 40 2768 1720 207
1756184 2019-10-29 1748 615 AB UNID XUE xx
1756183 2019-10-29 0500 385 OAN Orleans / Bricy FRA eu JN08va 25 2380 1479 223
1756182 2019-10-29 0000 299 HIO Khios GRC eu KM38bi 3074 1910 176
1756181 2019-10-28 1900 290 NW Oksywie POL eu JO94fo 1300 808 196
1756177 2019-10-27 0426 365 L Karlovy Vary / Vrata CZE eu JO60le 1866 1160 205
1756178 2019-10-27 0426 316 CAL Cagliari / Elmas SAR eu JM49mf 3123 1940 205
1756179 2019-10-27 0426 304 MOK Bordj Mokhtar ALG af JL01li 5231 3250 209
1756180 2019-10-27 0426 338 NC Nice / Cote D'azur FRA eu JN33no 40 2693 1673 210
1756176 2019-10-26 2300 394 KT Southdowns ZMB af KH47bc 50 8777 5453 175
1756175 2019-10-24 0300 284 YOC Old Crow YT CAN na CP07bn 5112 3176 351
1756174 2019-10-23 1604 347 TNC Tin CIty AK ALS na AP65an 5357 3328 6
1756173 2019-10-23 0507 516 YWA Petawawa ON CAN na FN15iv 25 5906 3669 301
1756172 2019-10-23 0400 204 YFY Forbay - Iqaluit NU CAN na FP53rr 1500 3982 2474 310
1756171 2019-10-23 0300 326 VQ Norman Wells NT CAN na CP65pg 5234 3252 343
1756170 2019-10-23 0200 390 SO Santiago de Compostela ESP eu IN52sx 3234 2010 233
1756169 2019-10-23 0100 432 MDA Armada Platform XOE iw JO07sn 1494 929 242
1756168 2019-10-22 2000 505 SX Pugus TJK as MM48ku 4123 2562 114
1756167 2019-10-22 0100 220 BX Blanc Sablon / Lourdes de Blanc Sablon QC CAN na GO11jk 2000 4577 2844 290
1756165 2019-10-21 1442 360 KM Huailai CHN as ON70rj 6032 3748 69
1756166 2019-10-21 1442 372 FX Hobbot / Baita CHN as ON50vu 5831 3623 72
1756163 2019-10-20 2200 386 LW Lusaka ZMB af KH44eq 100 9046 5621 175
1756164 2019-10-20 2200 275 O UNID XUF xx
1756155 2019-10-20 2100 268 LA Lahore PAK as MM71em 5076 3154 113
1756156 2019-10-20 2100 289 WR Chertovitskoye / Voronezh RUS eu KO91ou 1785 1109 144
1756157 2019-10-20 2100 285 ABM Abu Musa IRN as LL75mv 4952 3077 138
1756158 2019-10-20 2100 275 O UNID XUF xx
1756159 2019-10-20 2100 435 KI UNID - Chkalovskij ? XUE xx
1756160 2019-10-20 2100 285 AN Ankara / Esenboga TUR as KN60lb 2936 1824 164
1756161 2019-10-20 2100 268 SHR Shahroud IRN as LM76nk 3849 2391 133
1756162 2019-10-20 2100 286 R Penza RUS eu LO23lc 1836 1141 131
1756152 2019-10-20 1900 399 BU Barnaul RSE as NO13ri 3455 2147 84
1756153 2019-10-20 1900 237 KQ Lanzhou CHN as OM16tm 400 5886 3657 82
1756154 2019-10-20 1900 392 WB Linru CHN as OM64jd 6523 4053 75
2178086 2019-10-20 1900 228 QP UNID XUA xx
2350136 2019-10-20 1900 620 U Novokuznetsk / Spichenkovo RUS eu NO33kt 394 400 15.02 3571 2219 81
2350137 2019-10-20 1900 605 BA Bachkar RSE as NO17aa 1047 1051 15.05 3104 1929 80
2350138 2019-10-20 1900 210 JSK UNID XUU xx 1021 8.6
2350139 2019-10-20 1900 609 B Tolka RSE as NP13ax 402 20 2639 1639 67
1756151 2019-10-20 0300 345 LN Lannion / Servel FRA eu IN88ir 25 2482 1542 232
1756150 2019-10-20 0200 334 YN La Roche Sur Yon FRA eu IN96iq 15 2614 1624 227
1756149 2019-10-20 0000 327 LV Koln / Bonn DEU eu JO30ot 25 1937 1203 217
1756148 2019-10-19 1926 397 OP Dublin IRL eu IO63wj 15 2159 1342 244
1756147 2019-10-19 0453 365 PAL Palma EQA sa FI07cx 1000 10834 6732 281
1756145 2019-10-19 0400 266 GH Fort Good Hope NT CAN na CP56qg 5150 3200 345
1756146 2019-10-19 0400 358 NL Signal Hill (Saint John's) NL CAN na GN37pn 4728 2937 283
1756144 2019-10-19 0200 346 OC Cognac / Chateaubernard FRA eu IN95wr 2673 1661 224
1756143 2019-10-17 2300 308 VT Vitoria ESP eu IN82ot 3055 1898 225
1756142 2019-10-17 1629 410 US Ekaterinburg / Aramil / Uktus RSE as MO06jq 2172 1349 100
1756140 2019-10-16 2300 327 NC8 Hamada NC-8 LBY af JL69km 4125 2563 196
1756141 2019-10-16 2300 240 TIR Tirios (PA) BRA sa GJ22af 9329 5797 261
1756139 2019-10-16 2000 347 SAB Sabiha Gokcen TUR as KN40pv 2808 1745 170
1756138 2019-10-16 1521 257 VF UNID XUU xx
1756136 2019-10-16 0427 323 SBL Sherburn-In-Elmet ENG eu IO93js 1931 1200 237
1756137 2019-10-16 0427 343 RLF Rolf A Platform XOE iw JO25di 1584 984 231
2178085 2019-10-15 1900 510 CE Maksimkin Yar RSE as NO38ip 3189 1982 74
1756133 2019-10-15 1708 416 PPA UNID XUU xx
1756134 2019-10-15 1708 470 QL Taganrog RUS eu KN97kg 2256 1402 149
1756135 2019-10-15 1708 372 TJ Sesha RUS eu KO63qr 1455 904 154
2178084 2019-10-15 1708 282 OA Szolnok / Opera HNG eu KN07dd 2106 1308 187
1756131 2019-10-15 1456 250 AP Anpu TWN as PL05se 7793 4842 72
1756132 2019-10-15 1456 266 DO Yaoji CHN as OM80vb 7143 4438 73
1756129 2019-10-15 1430 326 U Kubinka RUS eu KO85ho 1335 829 143
1756130 2019-10-15 1430 325 NU Bryansk RUS eu KO73ce 1529 950 153
1756123 2019-10-15 0427 426 CB Coimbra POR eu IN50sd 3518 2186 231
1756124 2019-10-15 0427 367 ASM Clermont-Ferrand / Auvergne FRA eu JN15qt 2558 1590 218
1756125 2019-10-15 0427 330 RMA Malaga ESP eu IM76sp 80 3744 2326 223
1756126 2019-10-15 0427 420 ABN Albenga (SV) ITA eu JN44cb 40 2620 1628 209
1756127 2019-10-15 0427 329 JW Jersey JSY eu IN89ve 2399 1491 231
1756128 2019-10-15 0427 375 BRG Bourges FRA eu JN17da 2466 1532 222
1756122 2019-10-15 0400 388 MM Fort Mc Murray AB CAN na DO46hp 125 5879 3653 331
1756120 2019-10-15 0327 382 EGN Athens Central / Aegina Isl GRC eu KM17rs 40 3137 1949 180
1756121 2019-10-15 0327 413 RAG Raguba LBY af JL99mc 4114 2556 187
1756119 2019-10-15 0100 394 BCE BP / Bruce Alpha XOE iw JO09ur 1318 819 248
1756118 2019-10-14 1800 410 KE Chor PAK as ML45vm 500 5500 3418 121
1756117 2019-10-14 1651 371 ROR Koror PLW oc PJ77gi 10163 6315 68
1756112 2019-10-14 1559 345 JH Dongying CHN as OM97jn 6447 4006 68
1756113 2019-10-14 1559 403 JB Zangangzhen CHN as OM89cb 6192 3847 69
1756114 2019-10-14 1559 340 WK Hsinshie TWN as PL04jf 7856 4881 73
1756115 2019-10-14 1559 227 BK Ningbo CHN as PL09pv 7311 4542 70
1756116 2019-10-14 1559 492 P Klin RUS eu KO86ii 1262 784 141
2309138 2019-10-14 1559 247 FZ Tunli CHN as PM07ok 6561 4077 66
2309139 2019-10-14 1559 365 HD Tumurtai CHN as ON61nu 5793 3599 70
2309140 2019-10-14 1559 234 IS UNID XUU xx
2309141 2019-10-14 1559 202 DI UNID XUA xx
2309142 2019-10-14 1559 269 CU UNID XUA xx
2309143 2019-10-14 1559 217 ZJ Changzhou CHN as OM91uw 7040 4374 70
1756111 2019-10-13 1657 341 YI Beihai CHN as OL41rn 7620 4735 84
1756108 2019-10-12 2200 407 KSR Kayseri / Erkilet TUR as KM78ss 3113 1934 160
1756109 2019-10-12 2200 300 OJ Essider LBY af JM90ep 3947 2453 188
1756110 2019-10-12 2200 345 THS Thessaloniki / Makedonia GRC eu KN10lo 2822 1754 181
1756107 2019-10-12 0000 385 CSC Cannes / Ile de Leirins FRA eu JN33mm 2704 1680 210
1756106 2019-10-11 2300 391 GAP Sanliurfa / Gap TUR as KM97kk 3314 2059 155
1756105 2019-10-11 1606 231 Ch UNID - Baranovichi, BLR ??? XUE xx
1756104 2019-10-11 1545 295 YN Vasilkov UKR eu KO50df 1787 1110 165
1756103 2019-10-11 0000 351 PD Ponta Delgada AZR eu HM77dr 4438 2758 250
1756102 2019-10-10 2300 380 CBL Campbeltown SCT eu IO75dk 1968 1223 247
1756101 2019-10-10 2200 325 LE Lusaka ZMB af KH44gp 9051 5624 175
1756100 2019-10-09 2200 291 KZN Kozani / Filippos GRC eu KN00wg 2862 1778 183
1756098 2019-10-08 2200 597.5 TWR Ile d'Ouessant XOE iw JO11ea 2063 1282 226
1756099 2019-10-08 2200 403 TEST UNID - M-403 (HNG) ??? XUU xx
1756097 2019-10-08 1800 345 SV Changsha / Luchong CHN as OL68qf 500 7131 4431 78
1756096 2019-10-08 1614 268 YX UNID XUA xx
1756095 2019-10-08 1544 311 SA Elista RUS eu LN26dj 2486 1545 141
1756092 2019-10-07 1624 1000 GN Gelenjik RUS eu KN94an 2527 1570 153
1756093 2019-10-07 1624 718 NL Nalchik RUS eu LN13um 2770 1721 144
1756094 2019-10-07 1624 687 VT Eysk RUS eu KN86xp 2302 1430 152
1756077 2019-10-07 0000 368.5 WHI Whitegate for Hawarden ENG eu IO83qe 25 2039 1267 238
1756078 2019-10-07 0000 402 DA Ales / Deaux FRA eu JN24bb 2720 1690 216
1756079 2019-10-07 0000 409 IFN Ifrane MRC af IM73km 4092 2542 222
1756080 2019-10-07 0000 274 TNA Tan Tan MRC af IL48jk 2000 4819 2994 227
1756081 2019-10-07 0000 332 RO Tivat MNE eu JN92gk 2640 1640 190
1756082 2019-10-07 0000 332 SBI Rabat / Sale MRC af IM64qe 4069 2528 225
1756083 2019-10-07 0000 366 COR Cordoba ESP eu IM77nu 20 3632 2257 225
1756084 2019-10-07 0000 323 WPL Welshpool WLS eu IO82kp 2107 1309 238
1756085 2019-10-07 0000 268 SHR Shahroud IRN as LM76nk 3849 2391 133
1756086 2019-10-07 0000 369 RCH Rochester ENG eu JO01gi 2093 1300 230
1756087 2019-10-07 0000 343 YVL Yeovil / Westland ENG eu IO80qw 2247 1396 234
1756088 2019-10-07 0000 424 RUS Reus ESP eu JN01nd 200 3108 1931 218
1756089 2019-10-07 0000 285 URB Roma / Urbe (RM) ITA eu JN61fw 2768 1720 200
1756090 2019-10-07 0000 387 AD Kraljevo SRB eu KN03hs 2478 1540 186
1756091 2019-10-07 0000 360 SR Saarbrucken / Ensheim DEU eu JN39of 25 2100 1305 215
1756075 2019-10-06 2100 350 XV Novy Vasyugan RSE as MO88go 2742 1704 82
1756076 2019-10-06 2100 350 GO Gorno-Altaysk RSE as NO22wa 3675 2283 84
1756074 2019-10-06 2000 390 NPT UNID XUA xx
1756073 2019-10-06 1703 315 DM Salekhard RSE as MP36io 1872 1163 68
1756072 2019-10-05 1617 718 NF Nalchik RUS eu LN13um 2770 1721 144
1756071 2019-10-05 1543 707 BD Khanty-Mansiysk RSE as MP41la 2242 1393 82
1756070 2019-10-04 1800 356 N Akhtubinsk RUS eu LN38ch 2348 1459 135
1756068 2019-10-04 1714 385 PF Ura-Tyube TJK as MN40lb 4008 2491 113
1756069 2019-10-04 1714 650 C Kushchevskaya RUS eu KN96sm 2351 1461 149
1756063 2019-10-04 1619 879 B Ermolino RUS eu KO85hf 1373 853 144
1756064 2019-10-04 1619 740 TG Armavir / Tsentralny RUS eu LN04nx 2551 1585 147
1756065 2019-10-04 1619 713 O Borisoglebsk RUS eu LO11ci 1920 1193 139
1756066 2019-10-04 1619 687 WU Yeysk RUS eu KN96cq 2303 1431 151
1756067 2019-10-04 1619 780 O Orsk RUS eu LO91hb 2548 1583 113
1756062 2019-10-02 1601 925 B Lipetsk-2 RUS eu KO92rp 1711 1063 142
1756060 2019-10-01 2300 343 AR Aurillac FRA eu JN14ew 2678 1664 219
1756061 2019-10-01 2300 384 AT Annecy / Meythet FRA eu JN35au 2482 1542 214
1756058 2019-10-01 1800 495 BP Budennovsk RUS eu LN24at 2644 1643 143
1756059 2019-10-01 1800 452 G Primorsko-Ahtarsk RUS eu KN96cb 2370 1473 152
1753441 2019-09-30 1704 1000 KZ Severnoye RSE as MO96ei 2990 1858 84
1753440 2019-09-28 0000 331 HRM Hassi R.Mel / Tilrempt / Oued Irarra ALG af JM12pw 3925 2439 210
1753439 2019-09-27 2300 345 LW Langebaanweg AFS af JF97ba 3000 11015 6844 185
1753438 2019-09-27 2200 330 OA Samah / Warehouse 59 LBY af JL98mc 4225 2625 187
1753437 2019-09-27 1800 288 KHY Khoy IRN as LM28lk 3340 2075 146
1753436 2019-09-27 1701 470 K Kotlas RUS eu LP31if 1230 764 104
1753435 2019-09-27 0400 385 PTP Pointe a Pitre GDL ca FK96eg 8163 5072 272
1753434 2019-09-27 0200 362 HE Saudarkrokur / Hegranes ISL eu IP05fs 1941 1206 289
1753433 2019-09-26 2300 377 BLC Blace SRB eu KN03qf 2535 1575 185
1753431 2019-09-26 2200 422 ATL Astypalaia GRC eu KM36en 3274 2034 176
1753432 2019-09-26 2200 412 GRN Gerona ESP eu JN12ja 250 2970 1845 216
1753430 2019-09-26 2100 510 DZ Dalanzadgad MNG as ON23fo 5252 3263 76
1753423 2019-09-26 1645 345 Z Khanty-Mansiysk RUS eu MP41na 2250 1398 82
1753424 2019-09-26 1645 335 DR Dnipropetrovsk UKR eu KN78oi 2065 1283 156
1753425 2019-09-26 1645 398 VQ Darongjiang CHN as OL55fd 500 7308 4540 82
1753426 2019-09-26 1645 380 ZCh Kryazh RUS eu LO53bc 2024 1257 122
1753427 2019-09-26 1645 480 K Tambov RUS eu LO02qq 1762 1095 138
1753428 2019-09-26 1645 481 N UNID XUA xx
1753429 2019-09-26 1645 455 UH Chuguyev UKR eu KN89hu 1932 1201 151
2350135 2019-09-26 1645 334 BK Krasnoyarsk / Yemelyanovo RSE as NO66hd 1057 1066 15.08 3638 2260 73
1753418 2019-09-26 1609 965 BL Kazan RUS eu LO45po 1769 1099 118
1753419 2019-09-26 1609 625 AB UNID XUU xx
1753420 2019-09-26 1609 670 MZ Chelyabinsk / Shagol RSE as MO05pg 2305 1432 103
1753421 2019-09-26 1609 730 WS Arkhangels / Vaskovo RUS eu LP04fk 782 486 95
1753422 2019-09-26 1609 939 MN Sasovo RUS eu LO04xi 1616 1004 134
1753414 2019-09-26 0000 373 LCT Le Luc / Le Cannet FRA eu JN33ej 2733 1698 212
1753415 2019-09-26 0000 385 WL Barrow / Walney Isl ENG eu IO84id 1979 1230 241
1753416 2019-09-26 0000 395 LAY Islay SCT eu IO65vq 1968 1223 249
1753417 2019-09-26 0000 330 SRN Saronno (VA) ITA eu JN45mp 2432 1511 209
1753412 2019-09-25 2300 433 VNS Castor UGS XOE iw JN00ij 3198 1987 218
1753413 2019-09-25 2300 321 STM Scilly Isles / St Mary ENG eu IN69uv 2484 1543 238
1753405 2019-09-25 2200 395 MLT Malta MLT eu JM75gt 400 3411 2119 195
1753406 2019-09-25 2200 351 PL Perpignan / Rivesaltes FRA eu JN12lq 2896 1799 217
1753407 2019-09-25 2200 420 GO Podgorica MNE eu JN92ph 2648 1645 188
1753408 2019-09-25 2200 358 BRS Biscarosse / Parentis FRA eu IN94ki 2844 1767 224
1753409 2019-09-25 2200 404 AGO Angouleme / Brie Champniers FRA eu JN05fr 2654 1649 223
1753410 2019-09-25 2200 394 GDA Alexandria GRC eu KN10fp 2819 1751 182
1753411 2019-09-25 2200 393 BD Bordeaux / Merignac FRA eu IN94rw 2766 1719 224
1753404 2019-09-25 2100 505 SX Pugus TJK as MM48ku 4123 2562 114
1753401 2019-09-25 1900 392 BK Buguruslan / Severny RUS eu LO63es 2052 1275 117
1753402 2019-09-25 1900 471 AE UNID XUU xx
1753403 2019-09-25 1900 390 VK Severomorsk-1 RUS eu KP69qb 523 325 44
1753400 2019-09-25 1800 392 L Chelyabinsk / Balandino RUS eu MO05rh 2309 1434 102
1753396 2019-09-25 1712 325 ES UNID XUE xx
1753397 2019-09-25 1712 480 S Tambov RUS eu LO02qq 1762 1095 138
1753398 2019-09-25 1712 520 OO Shaykovka RUS eu KO74ef 1422 884 151
1753399 2019-09-25 1712 350 KRD Khoram Abad IRN as LM43em 3952 2456 143
1753391 2019-09-25 1617 795 B Buguruslan / Severnyj RUS eu LO63er 2056 1277 117
1753392 2019-09-25 1617 925 A Lipetsk-2 RUS eu KO92rp 1711 1063 142
1753393 2019-09-25 1617 697 SM Tambov RUS eu LO02qq 1762 1095 138
1753394 2019-09-25 1617 670 GC Vologda-Kipelovo RUS eu KO99ne 1075 668 127
1753395 2019-09-25 1617 733 NP Akhtubinsk RUS eu LN38ch 2348 1459 135
1753390 2019-09-25 1530 302 ChB Novaya Zemlya (Rogachevo) RUS eu LQ61fo 1286 799 48
1753388 2019-09-25 0400 351 YKQ Waskaganish QC CAN na FO01pl 500 5426 3371 306
1753389 2019-09-25 0400 392 ML Charlevoix QC CAN na FN47uo 500 5467 3397 297
1753381 2019-09-25 0300 328 HB 'Sisimuit' Holsteinborg (Kitaa) GRL na GP36dw 3230 2007 307
1753382 2019-09-25 0300 278 NM Matagami QC CAN na FN19dr 400 5555 3451 304
1753383 2019-09-25 0300 355 YWP Webequie ON CAN na EO62hx 100 5584 3470 313
1753384 2019-09-25 0300 406 YLJ Meadow Lake SK CAN na DO54qd 15 6075 3775 328
1753385 2019-09-25 0300 328 YTL Big Trout Lake ON CAN na EO53bt 1000 5585 3470 315
1753386 2019-09-25 0300 382 YPL Pickle Lake ON CAN na EO41vk 500 5828 3621 314
1753387 2019-09-25 0300 260 YAT 'Wapisk' Attawapiskat ON CAN na EO82sw 125 5422 3369 309
1753376 2019-09-25 0100 277 YLC Kimmirut NU CAN na FP52bu 1000 4098 2547 310
1753377 2019-09-25 0100 359 NA Narsarsuaq (Kitaa) GRL na GP71he 3294 2047 294
1753378 2019-09-25 0100 371 GW Jarpik Kuujjuarapik QC CAN na FO15cg 500 5039 3131 308
1753379 2019-09-25 0100 366 YMW Maniwaki QC CAN na FN26ae 500 5826 3620 300
1753380 2019-09-25 0100 390 VP Kuujjuaq / Kujack QC CAN na FO58sb 500 4451 2765 304
1753373 2019-09-25 0000 440 FEL El Feel LBY af JL66ab 4517 2807 196
1753374 2019-09-25 0000 419 LRO Leros GRC eu KM37je 3206 1992 175
1753375 2019-09-25 0000 417 SYR Syros GRC eu KM27lk 3174 1972 178
1753372 2019-09-24 2300 349 IPT Isparta / Suleyman Demirel TUR as KM57eu 3154 1959 169
1753371 2019-09-24 2200 410 3EYH5 Aegir XOE iw
1753366 2019-09-24 1800 372 NH Tobolsk RSE as MO48cd 2399 1490 90
1753367 2019-09-24 1800 315 TM Roschino / Tyumen RSE as MO27qf 2337 1452 94
1753368 2019-09-24 1800 475 JD Fayzabad TJK as MM48pn 4168 2590 114
1753369 2019-09-24 1800 479 GR Saratov / Gagarin RUS eu LO31br 2008 1248 131
1753370 2019-09-24 1800 422 RQ Plesetsk RUS eu KN94ih 2568 1596 152
1753361 2019-09-24 1706 405 NC Volgograd / Marinovka RUS eu LN18vp 2241 1392 139
1753362 2019-09-24 1706 370 GL Kapustin Yar RUS eu LN82uq 3306 2054 124
1753363 2019-09-24 1706 408 Sh Olenya RUS eu KP68rd 473 294 55
1753364 2019-09-24 1706 401 G Dzhankoy UKR eu KN75fr 2336 1452 159
1753365 2019-09-24 1706 592 CS Morozovsk RUS eu LN08vi 2215 1376 143
1753355 2019-09-24 1612 670 ND Kubinka RUS eu KO86ho 1235 767 141
1753356 2019-09-24 1612 735 FF Tambov / Donskoye RUS eu LO03rt 1653 1027 136
1753357 2019-09-24 1612 742 WA Kursk RUS eu KO81er 1729 1074 150
1753358 2019-09-24 1612 625 Q Rtishchevo RUS eu LO12uh 1871 1163 134
1753359 2019-09-24 1612 670 D Ivanovo / Yuzhny RUS eu LO06lw 1340 832 130
1753360 2019-09-24 1612 910 UJ Millerovo RUS eu LN08dw 2115 1314 145
1753351 2019-09-24 0000 275 CAE Ben Slimane MRC af IM63ko 4146 2576 225
1753352 2019-09-24 0000 389 BDR Bodrum / Milas TUR as KM37ug 3201 1989 173
1753353 2019-09-24 0000 385.5 KDN Tunis / Carthage / Khereddine TUN af JM56dt 3363 2090 202
1753354 2019-09-24 0000 258 LU Luanda /4 de Fevereiro AGL af JI61pe 8363 5196 190
1753350 2019-09-23 2300 435 IGZ In Guezzam ALG af JK29vn 5329 3311 203
1753347 2019-09-23 2200 316 BRR Barra SCT eu IO67ga 1915 1190 253
1753348 2019-09-23 2200 372 PY Le Puy / Loudes FRA eu JN15va 2629 1633 217
1753349 2019-09-23 2200 341 BZ Biarritz / Bayonne / Anglet FRA eu IN93hl 25 2941 1828 224
1753346 2019-09-23 1900 212 FA Faisalabad PAK as MM61li 5034 3128 115
1753345 2019-09-23 1800 242 Z Engels-2 RUS eu LO31cl 2035 1264 131
1753339 2019-09-23 1708 350 HG Hengshui CHN as OM77ur 6300 3915 71
1753340 2019-09-23 1708 276 KM Danushan CHN as PN11bp 6188 3845 63
1753341 2019-09-23 1708 390 RL Krasnoyarsk RSE as NO66hd 3638 2260 73
1753342 2019-09-23 1708 352 VW Fujiachang CHN as OL29dw 6556 4074 85
1753343 2019-09-23 1708 296 PU Dongyangjiao CHN as PN11pm 50 6247 3882 62
1753344 2019-09-23 1708 363 LA Zhoushan CHN as PM10ea 7344 4563 69
1753337 2019-09-23 1642 700 AD Moscow / Sheremetievo RUS eu KO85sx 1323 822 140
1753338 2019-09-23 1642 672 RS Rashivka UKR eu KO60wf 1839 1143 157
1753334 2019-09-23 1604 963 KCh Orenburg-2 RUS eu LO71mr 2341 1455 117
1753335 2019-09-23 1604 910 K Tver / Migalovo RUS eu KO76vt 1192 740 143
1753336 2019-09-23 1604 672 M Bugulma RUS eu LO64jp 1993 1238 115
1753333 2019-09-23 0200 338 YPX Puvirnituq QC CAN na FP10ib 500 4589 2851 312
1753332 2019-09-23 0100 305 LT Alert Bay NU CAN na FR82vm 1000 2737 1701 341
1750143 2019-09-22 2200 321 TL Tarbes / Ossun / Lourdes FRA eu JN03ag 100 2919 1814 222
1750144 2019-09-22 2200 302 YT Antalya TUR as KM56jv 25 3263 2028 168
1750142 2019-09-22 1711 341 GHN UNID XUU xx
1750133 2019-09-22 1647 750 NR Novolokti RSE as NO14lj 3349 2081 83
1750134 2019-09-22 1647 595 I Kirovsk / Apatity RUS eu KP67tl 452 281 64
1750135 2019-09-22 1647 707 ZJ Khanty-Mansiysk RSE as MP41ob